createdAt,value
2019-02-28T00:00:48.924Z,24.03
2019-02-28T00:03:22.108Z,22.30
2019-02-28T00:05:54.756Z,23.87
2019-02-28T00:08:26.343Z,21.63
2019-02-28T00:10:57.969Z,22.90
2019-02-28T00:13:29.805Z,22.13
2019-02-28T00:16:03.297Z,22.10
2019-02-28T00:18:34.765Z,21.63
2019-02-28T00:21:07.105Z,22.47
2019-02-28T00:23:38.788Z,21.43
2019-02-28T00:26:11.656Z,27.23
2019-02-28T00:28:43.950Z,23.13
2019-02-28T00:31:15.539Z,23.03
2019-02-28T00:33:47.124Z,23.57
2019-02-28T00:36:19.304Z,23.10
2019-02-28T00:38:51.375Z,23.87
2019-02-28T00:41:22.966Z,23.73
2019-02-28T00:43:56.872Z,22.90
2019-02-28T00:46:28.024Z,22.37
2019-02-28T00:48:59.804Z,25.77
2019-02-28T00:51:31.386Z,24.63
2019-02-28T00:54:02.967Z,28.70
2019-02-28T00:56:34.582Z,25.33
2019-02-28T00:59:06.169Z,23.33
2019-02-28T01:01:37.761Z,22.27
2019-02-28T01:04:10.416Z,24.37
2019-02-28T01:06:42.543Z,21.57
2019-02-28T01:09:14.125Z,22.13
2019-02-28T01:11:45.778Z,21.07
2019-02-28T01:14:17.362Z,21.43
2019-02-28T01:16:50.190Z,23.37
2019-02-28T01:19:22.271Z,22.50
2019-02-28T01:21:55.427Z,25.30
2019-02-28T01:24:27.255Z,23.33
2019-02-28T01:26:59.986Z,25.83
2019-02-28T01:29:32.943Z,24.53
2019-02-28T01:32:05.131Z,26.67
2019-02-28T01:34:36.779Z,22.10
2019-02-28T01:37:08.366Z,22.33
2019-02-28T01:39:39.984Z,20.57
2019-02-28T01:42:11.575Z,20.67
2019-02-28T01:44:43.183Z,22.27
2019-02-28T01:47:14.836Z,23.80
2019-02-28T01:49:46.482Z,21.53
2019-02-28T01:52:18.086Z,21.27
2019-02-28T01:54:49.689Z,20.83
2019-02-28T01:57:21.287Z,21.83
2019-02-28T01:59:53.667Z,19.70
2019-02-28T02:02:25.280Z,20.47
2019-02-28T02:04:57.083Z,22.20
2019-02-28T02:07:30.570Z,22.87
2019-02-28T02:10:02.161Z,19.43
2019-02-28T02:12:33.936Z,19.30
2019-02-28T02:15:06.721Z,20.73
2019-02-28T02:17:38.387Z,19.23
2019-02-28T02:20:10.387Z,20.33
2019-02-28T02:22:44.475Z,20.83
2019-02-28T02:25:15.301Z,19.60
2019-02-28T02:27:46.906Z,20.37
2019-02-28T02:30:21.052Z,21.53
2019-02-28T02:32:52.717Z,21.10
2019-02-28T02:35:24.335Z,19.87
2019-02-28T02:37:56.133Z,18.43
2019-02-28T02:40:27.959Z,21.80
2019-02-28T02:42:59.846Z,19.30
2019-02-28T02:45:31.480Z,19.07
2019-02-28T02:48:05.157Z,18.03
2019-02-28T02:50:36.384Z,18.33
2019-02-28T02:53:07.985Z,20.83
2019-02-28T02:55:39.917Z,21.50
2019-02-28T02:58:11.771Z,18.73
2019-02-28T03:00:49.642Z,19.80
2019-02-28T03:03:16.656Z,17.57
2019-02-28T03:05:51.144Z,17.97
2019-02-28T03:08:22.767Z,17.53
2019-02-28T03:10:54.396Z,17.10
2019-02-28T03:13:26.971Z,17.10
2019-02-28T03:15:59.511Z,20.07
2019-02-28T03:18:33.093Z,17.97
2019-02-28T03:21:04.693Z,19.23
2019-02-28T03:23:40.163Z,17.33
2019-02-28T03:26:09.654Z,17.47
2019-02-28T03:28:41.862Z,18.03
2019-02-28T03:31:15.411Z,20.27
2019-02-28T03:33:47.217Z,18.33
2019-02-28T03:36:18.821Z,18.30
2019-02-28T03:38:50.442Z,17.13
2019-02-28T03:41:22.301Z,15.37
2019-02-28T03:43:53.983Z,16.07
2019-02-28T03:46:25.593Z,16.17
2019-02-28T03:48:57.349Z,17.13
2019-02-28T03:51:31.964Z,16.57
2019-02-28T03:54:03.563Z,16.60
2019-02-28T03:56:35.190Z,16.67
2019-02-28T03:59:06.786Z,15.87
2019-02-28T04:01:44.820Z,16.13
2019-02-28T04:04:12.526Z,17.37
2019-02-28T04:06:44.304Z,39.80
2019-02-28T04:09:15.908Z,19.50
2019-02-28T04:11:47.533Z,20.10
2019-02-28T04:14:19.127Z,22.23
2019-02-28T04:16:54.143Z,20.70
2019-02-28T04:19:24.124Z,25.13
2019-02-28T04:21:55.849Z,19.93
2019-02-28T04:24:27.456Z,25.00
2019-02-28T04:27:06.338Z,21.43
2019-02-28T04:29:32.769Z,17.20
2019-02-28T04:32:04.462Z,18.37
2019-02-28T04:34:36.115Z,17.90
2019-02-28T04:37:08.600Z,20.53
2019-02-28T04:39:42.384Z,15.23
2019-02-28T04:42:13.994Z,15.17
2019-02-28T04:44:45.661Z,14.70
2019-02-28T04:47:17.343Z,20.70
2019-02-28T04:49:48.931Z,16.60
2019-02-28T04:52:20.553Z,13.80
2019-02-28T04:54:52.172Z,14.57
2019-02-28T04:57:23.812Z,14.80
2019-02-28T04:59:55.411Z,18.27
2019-02-28T05:02:28.303Z,12.47
2019-02-28T05:05:00.296Z,12.50
2019-02-28T05:07:31.903Z,34.00
2019-02-28T05:10:03.645Z,13.67
2019-02-28T05:12:36.219Z,12.60
2019-02-28T05:15:08.575Z,11.67
2019-02-28T05:17:40.204Z,11.23
2019-02-28T05:20:12.287Z,14.53
2019-02-28T05:22:44.078Z,12.83
2019-02-28T05:25:18.670Z,14.27
2019-02-28T05:27:49.039Z,13.70
2019-02-28T05:30:20.641Z,12.70
2019-02-28T05:32:52.428Z,20.73
2019-02-28T05:35:26.694Z,11.67
2019-02-28T05:37:57.338Z,11.03
2019-02-28T05:40:28.939Z,11.70
2019-02-28T05:43:00.566Z,11.27
2019-02-28T05:45:32.184Z,13.37
2019-02-28T05:48:04.653Z,12.20
2019-02-28T05:50:36.371Z,11.63
2019-02-28T05:53:09.437Z,11.57
2019-02-28T05:55:41.255Z,12.37
2019-02-28T05:58:17.576Z,12.27
2019-02-28T06:00:46.183Z,12.07
2019-02-28T06:03:17.896Z,11.90
2019-02-28T06:05:49.483Z,9.30
2019-02-28T06:08:21.093Z,10.30
2019-02-28T06:10:56.067Z,10.40
2019-02-28T06:13:26.206Z,10.90
2019-02-28T06:15:57.828Z,10.27
2019-02-28T06:18:32.663Z,11.03
2019-02-28T06:21:02.748Z,15.77
2019-02-28T06:23:34.428Z,11.47
2019-02-28T06:26:06.151Z,11.17
2019-02-28T06:28:37.762Z,11.27
2019-02-28T06:31:09.358Z,12.00
2019-02-28T06:33:40.979Z,12.77
2019-02-28T06:36:12.647Z,12.10
2019-02-28T06:38:44.330Z,12.93
2019-02-28T06:41:15.942Z,13.50
2019-02-28T06:43:50.238Z,12.00
2019-02-28T06:46:21.043Z,13.67
2019-02-28T06:48:52.680Z,13.17
2019-02-28T06:51:24.238Z,14.30
2019-02-28T06:53:55.933Z,14.83
2019-02-28T06:56:27.617Z,12.87
2019-02-28T06:58:59.242Z,13.83
2019-02-28T07:01:30.895Z,12.67
2019-02-28T07:04:02.572Z,13.77
2019-02-28T07:06:35.976Z,13.23
2019-02-28T07:09:08.183Z,11.57
2019-02-28T07:11:39.839Z,13.70
2019-02-28T07:14:13.842Z,13.10
2019-02-28T07:16:44.740Z,14.23
2019-02-28T07:19:16.373Z,14.57
2019-02-28T07:21:47.953Z,16.23
2019-02-28T07:24:19.576Z,12.30
2019-02-28T07:26:52.297Z,14.43
2019-02-28T07:29:24.646Z,14.70
2019-02-28T07:31:59.777Z,14.43
2019-02-28T07:34:30.497Z,16.07
2019-02-28T07:37:02.086Z,14.63
2019-02-28T07:39:36.522Z,14.60
2019-02-28T07:42:07.003Z,14.23
2019-02-28T07:44:38.624Z,13.93
2019-02-28T07:47:10.226Z,13.90
2019-02-28T07:49:41.869Z,13.53
2019-02-28T07:52:13.446Z,15.60
2019-02-28T07:54:47.553Z,15.43
2019-02-28T07:57:18.375Z,16.10
2019-02-28T07:59:49.976Z,17.20
2019-02-28T08:02:21.668Z,18.33
2019-02-28T08:04:54.547Z,16.50
2019-02-28T08:07:26.716Z,16.47
2019-02-28T08:09:58.557Z,15.53
2019-02-28T08:12:30.860Z,16.27
2019-02-28T08:15:02.989Z,17.50
2019-02-28T08:17:35.397Z,20.73
2019-02-28T08:20:07.377Z,19.03
2019-02-28T08:22:39.048Z,18.50
2019-02-28T08:25:11.631Z,20.37
2019-02-28T08:27:43.308Z,18.30
2019-02-28T08:30:19.471Z,20.23
2019-02-28T08:32:49.798Z,19.73
2019-02-28T08:35:22.492Z,21.17
2019-02-28T08:37:57.132Z,20.83
2019-02-28T08:40:27.679Z,22.90
2019-02-28T08:42:59.279Z,22.33
2019-02-28T08:45:33.493Z,23.20
2019-02-28T08:48:04.313Z,19.20
2019-02-28T08:50:35.932Z,19.57
2019-02-28T08:53:07.571Z,19.03
2019-02-28T08:55:41.659Z,21.53
2019-02-28T08:58:12.461Z,21.03
2019-02-28T09:00:44.071Z,22.30
2019-02-28T09:03:15.672Z,23.23
2019-02-28T09:05:47.275Z,22.47
2019-02-28T09:08:18.940Z,21.53
2019-02-28T09:10:51.609Z,23.23
2019-02-28T09:13:24.991Z,22.03
2019-02-28T09:15:56.788Z,21.37
2019-02-28T09:18:28.576Z,22.63
2019-02-28T09:21:00.469Z,21.83
2019-02-28T09:23:34.531Z,23.60
2019-02-28T09:26:06.443Z,26.00
2019-02-28T09:28:38.132Z,24.47
2019-02-28T09:31:09.823Z,22.73
2019-02-28T09:33:41.503Z,23.77
2019-02-28T09:36:13.111Z,24.90
2019-02-28T09:38:45.252Z,23.90
2019-02-28T09:41:19.063Z,27.00
2019-02-28T09:43:50.779Z,25.63
2019-02-28T09:46:22.371Z,28.47
2019-02-28T09:48:53.994Z,28.80
2019-02-28T09:51:31.637Z,26.17
2019-02-28T09:53:58.920Z,28.00
2019-02-28T09:56:30.590Z,27.10
2019-02-28T09:59:03.244Z,26.07
2019-02-28T10:01:35.537Z,26.27
2019-02-28T10:04:07.193Z,26.17
2019-02-28T10:06:38.951Z,24.23
2019-02-28T10:09:10.577Z,29.07
2019-02-28T10:11:42.189Z,27.50
2019-02-28T10:14:13.819Z,26.40
2019-02-28T10:16:45.545Z,26.57
2019-02-28T10:19:17.195Z,25.13
2019-02-28T10:21:52.121Z,26.90
2019-02-28T10:24:22.136Z,27.60
2019-02-28T10:26:53.831Z,25.53
2019-02-28T10:29:25.527Z,28.43
2019-02-28T10:31:57.349Z,27.33
2019-02-28T10:34:29.029Z,26.03
2019-02-28T10:37:00.719Z,26.50
2019-02-28T10:39:32.409Z,26.10
2019-02-28T10:42:05.152Z,26.20
2019-02-28T10:44:38.732Z,23.63
2019-02-28T10:47:10.377Z,28.47
2019-02-28T10:49:42.053Z,28.10
2019-02-28T10:52:13.753Z,29.50
2019-02-28T10:54:48.431Z,25.90
2019-02-28T10:57:18.709Z,26.40
2019-02-28T10:59:50.639Z,28.87
2019-02-28T11:02:22.285Z,24.07
2019-02-28T11:04:54.045Z,25.67
2019-02-28T11:07:25.681Z,27.17
2019-02-28T11:09:58.802Z,27.77
2019-02-28T11:12:30.765Z,25.47
2019-02-28T11:15:02.446Z,24.53
2019-02-28T11:17:34.326Z,34.90
2019-02-28T11:20:06.744Z,26.27
2019-02-28T11:22:39.880Z,27.03
2019-02-28T11:25:12.934Z,26.27
2019-02-28T11:27:44.657Z,28.27
2019-02-28T11:30:17.403Z,25.77
2019-02-28T11:32:49.128Z,26.97
2019-02-28T11:35:23.226Z,27.07
2019-02-28T11:37:54.147Z,27.20
2019-02-28T11:40:26.838Z,26.63
2019-02-28T11:42:59.496Z,26.30
2019-02-28T11:45:32.601Z,39.90
2019-02-28T11:48:05.228Z,25.13
2019-02-28T11:50:41.337Z,26.43
2019-02-28T11:53:10.291Z,39.63
2019-02-28T11:55:42.284Z,26.47
2019-02-28T11:58:17.701Z,32.30
2019-02-28T12:00:47.325Z,29.53
2019-02-28T12:03:19.021Z,30.83
2019-02-28T12:05:51.349Z,36.70
2019-02-28T12:08:23.154Z,30.33
2019-02-28T12:10:54.840Z,57.33
2019-02-28T12:13:26.696Z,27.73
2019-02-28T12:15:58.517Z,31.33
2019-02-28T12:18:30.389Z,31.93
2019-02-28T12:21:04.201Z,27.50
2019-02-28T12:23:35.337Z,29.77
2019-02-28T12:26:07.155Z,29.53
2019-02-28T12:28:39.164Z,29.03
2019-02-28T12:31:10.868Z,29.83
2019-02-28T12:33:42.484Z,30.53
2019-02-28T12:36:14.517Z,44.60
2019-02-28T12:38:46.958Z,41.93
2019-02-28T12:41:21.725Z,29.30
2019-02-28T12:43:51.969Z,30.77
2019-02-28T12:46:23.746Z,29.73
2019-02-28T12:48:55.418Z,29.10
2019-02-28T12:51:28.327Z,29.97
2019-02-28T12:54:00.147Z,29.50
2019-02-28T12:56:31.992Z,31.10
2019-02-28T12:59:03.961Z,32.23
2019-02-28T13:01:35.580Z,41.37
2019-02-28T13:04:07.323Z,32.93
2019-02-28T13:06:39.904Z,30.63
2019-02-28T13:09:16.893Z,28.90
2019-02-28T13:11:47.721Z,28.07
2019-02-28T13:14:19.427Z,29.70
2019-02-28T13:16:51.045Z,30.73
2019-02-28T13:19:22.695Z,33.20
2019-02-28T13:21:54.295Z,31.40
2019-02-28T13:24:26.010Z,37.87
2019-02-28T13:26:57.817Z,29.93
2019-02-28T13:29:32.411Z,30.13
2019-02-28T13:32:02.817Z,30.90
2019-02-28T13:34:34.432Z,38.90
2019-02-28T13:37:06.121Z,35.67
2019-02-28T13:39:37.764Z,62.13
2019-02-28T13:42:09.552Z,43.10
2019-02-28T13:44:41.195Z,65.77
2019-02-28T13:47:12.805Z,47.60
2019-02-28T13:49:46.624Z,74.93
2019-02-28T13:52:20.300Z,36.53
2019-02-28T13:54:51.165Z,32.50
2019-02-28T13:57:22.855Z,44.33
2019-02-28T13:59:54.549Z,53.97
2019-02-28T14:02:29.443Z,42.07
2019-02-28T14:05:03.058Z,51.43
2019-02-28T14:07:33.765Z,38.37
2019-02-28T14:10:07.300Z,35.77
2019-02-28T14:12:38.999Z,30.17
2019-02-28T14:15:15.490Z,32.13
2019-02-28T14:17:45.490Z,33.60
2019-02-28T14:20:17.192Z,32.53
2019-02-28T14:22:48.886Z,30.33
2019-02-28T14:25:20.866Z,34.83
2019-02-28T14:27:52.528Z,34.43
2019-02-28T14:30:24.977Z,32.10
2019-02-28T14:32:56.649Z,30.60
2019-02-28T14:35:33.849Z,33.23
2019-02-28T14:38:02.071Z,31.57
2019-02-28T14:40:33.929Z,38.97
2019-02-28T14:43:05.656Z,37.87
2019-02-28T14:45:39.280Z,33.17
2019-02-28T14:48:10.964Z,32.67
2019-02-28T14:50:42.617Z,37.33
2019-02-28T14:53:14.671Z,34.73
2019-02-28T14:55:46.406Z,43.10
2019-02-28T14:58:21.166Z,33.67
2019-02-28T15:00:51.423Z,40.37
2019-02-28T15:03:23.032Z,59.53
2019-02-28T15:05:55.548Z,42.77
2019-02-28T15:08:28.031Z,33.43
2019-02-28T15:10:59.660Z,40.33
2019-02-28T15:13:33.442Z,34.17
2019-02-28T15:16:04.742Z,51.13
2019-02-28T15:18:37.882Z,40.83
2019-02-28T15:21:09.532Z,44.57
2019-02-28T15:23:41.219Z,40.67
2019-02-28T15:26:12.913Z,45.17
2019-02-28T15:28:45.537Z,55.57
2019-02-28T15:31:17.897Z,51.70
2019-02-28T15:33:49.513Z,69.10
2019-02-28T15:36:24.286Z,66.03
2019-02-28T15:38:54.585Z,54.23
2019-02-28T15:41:26.206Z,49.93
2019-02-28T15:43:58.159Z,63.50
2019-02-28T15:46:30.042Z,43.90
2019-02-28T15:49:01.642Z,45.53
2019-02-28T15:51:33.236Z,52.80
2019-02-28T15:54:04.918Z,81.40
2019-02-28T15:56:36.851Z,54.27
2019-02-28T15:59:14.733Z,50.47
2019-02-28T16:01:45.285Z,43.50
2019-02-28T16:04:16.887Z,51.23
2019-02-28T16:06:48.510Z,56.53
2019-02-28T16:09:21.460Z,66.70
2019-02-28T16:11:53.867Z,71.27
2019-02-28T16:14:25.771Z,61.60
2019-02-28T16:17:00.309Z,77.37
2019-02-28T16:19:31.026Z,48.00
2019-02-28T16:22:02.657Z,58.93
2019-02-28T16:24:36.692Z,63.60
2019-02-28T16:27:07.825Z,56.10
2019-02-28T16:29:40.508Z,68.47
2019-02-28T16:32:14.156Z,65.37
2019-02-28T16:34:45.518Z,58.03
2019-02-28T16:37:17.143Z,70.10
2019-02-28T16:39:49.821Z,255.07
2019-02-28T16:42:21.639Z,239.40
2019-02-28T16:44:53.247Z,87.00
2019-02-28T16:47:25.182Z,249.57
2019-02-28T16:49:57.258Z,243.27
2019-02-28T16:52:29.116Z,135.73
2019-02-28T16:55:01.050Z,151.37
2019-02-28T16:57:32.737Z,236.13
2019-02-28T17:00:07.571Z,184.77
2019-02-28T17:02:37.787Z,159.33
2019-02-28T17:05:09.483Z,135.80
2019-02-28T17:07:43.589Z,116.73
2019-02-28T17:10:15.603Z,97.23
2019-02-28T17:13:12.072Z,104.27
2019-02-28T17:15:55.802Z,63.53
2019-02-28T17:18:26.248Z,71.90
2019-02-28T17:20:58.258Z,144.77
2019-02-28T17:23:30.194Z,67.80
2019-02-28T17:26:01.963Z,82.33
2019-02-28T17:29:01.847Z,113.27
2019-02-28T17:31:48.096Z,82.80
2019-02-28T17:34:23.695Z,101.13
2019-02-28T17:36:53.684Z,124.37
2019-02-28T17:39:25.282Z,93.83
2019-02-28T17:41:57.275Z,86.87
2019-02-28T17:44:57.909Z,90.93
2019-02-28T17:48:18.614Z,72.93
2019-02-28T17:50:57.349Z,59.77
2019-02-28T17:54:17.230Z,52.67
2019-02-28T17:57:29.018Z,52.63
2019-02-28T18:00:41.089Z,52.13
2019-02-28T18:04:01.984Z,52.33
2019-02-28T18:07:26.764Z,53.67
2019-02-28T18:10:41.391Z,54.00
2019-02-28T18:13:22.386Z,58.30
2019-02-28T18:16:26.585Z,67.40
2019-02-28T18:19:47.863Z,79.97
2019-02-28T18:22:56.781Z,84.17
2019-02-28T18:25:53.397Z,73.80
2019-02-28T18:29:05.431Z,82.33
2019-02-28T18:31:37.115Z,57.90
2019-02-28T18:34:16.990Z,59.33
2019-02-28T18:36:48.664Z,74.47
2019-02-28T18:39:21.350Z,109.27
2019-02-28T18:41:53.048Z,176.53
2019-02-28T18:44:24.733Z,68.10
2019-02-28T18:46:56.428Z,56.23
2019-02-28T18:49:29.375Z,62.33
2019-02-28T18:52:01.978Z,63.40
2019-02-28T18:54:34.675Z,65.63
2019-02-28T18:57:06.344Z,90.93
2019-02-28T18:59:38.071Z,96.73
2019-02-28T19:02:09.058Z,65.20
2019-02-28T19:04:40.653Z,73.40
2019-02-28T19:07:12.280Z,56.20
2019-02-28T19:09:43.961Z,80.17
2019-02-28T19:12:15.618Z,262.20
2019-02-28T19:14:47.316Z,226.60
2019-02-28T19:17:19.407Z,127.07
2019-02-28T19:19:52.089Z,149.37
2019-02-28T19:22:23.817Z,100.27
2019-02-28T19:24:55.700Z,100.10
2019-02-28T19:27:27.428Z,76.77
2019-02-28T19:29:59.113Z,64.07
2019-02-28T19:32:31.182Z,63.33
2019-02-28T19:35:04.026Z,66.83
2019-02-28T19:37:37.719Z,58.70
2019-02-28T19:40:12.549Z,78.63
2019-02-28T19:42:45.081Z,112.33
2019-02-28T19:45:17.481Z,103.40
2019-02-28T19:47:49.560Z,81.40
2019-02-28T19:50:22.352Z,69.90
2019-02-28T19:52:54.293Z,61.10
2019-02-28T19:55:26.374Z,70.77
2019-02-28T19:57:58.463Z,63.23
2019-02-28T20:00:30.438Z,82.57
2019-02-28T20:03:02.274Z,92.97
2019-02-28T20:05:34.448Z,76.53
2019-02-28T20:08:06.153Z,72.93
2019-02-28T20:10:37.844Z,49.83
2019-02-28T20:13:10.572Z,47.10
2019-02-28T20:15:42.432Z,48.80
2019-02-28T20:18:14.282Z,47.07
2019-02-28T20:20:46.038Z,47.03
2019-02-28T20:23:17.802Z,66.03
2019-02-28T20:25:49.517Z,63.47
2019-02-28T20:28:21.488Z,56.13
2019-02-28T20:30:53.227Z,55.73
2019-02-28T20:33:25.078Z,55.83
2019-02-28T20:35:56.853Z,56.10
2019-02-28T20:38:28.658Z,79.50
2019-02-28T20:41:00.442Z,104.90
2019-02-28T20:43:33.194Z,112.53
2019-02-28T20:46:04.901Z,88.70
2019-02-28T20:48:36.590Z,77.47
2019-02-28T20:51:08.362Z,68.77
2019-02-28T20:53:40.441Z,71.47
2019-02-28T20:56:12.147Z,57.43
2019-02-28T20:58:43.859Z,60.50
2019-02-28T21:01:15.577Z,69.60
2019-02-28T21:03:47.360Z,67.07
2019-02-28T21:06:19.058Z,62.77
2019-02-28T21:08:50.738Z,57.73
2019-02-28T21:11:22.452Z,52.37
2019-02-28T21:13:54.134Z,61.93
2019-02-28T21:16:25.919Z,98.03
2019-02-28T21:18:58.270Z,101.87
2019-02-28T21:21:30.523Z,50.33
2019-02-28T21:24:02.318Z,44.47
2019-02-28T21:26:34.226Z,45.30
2019-02-28T21:29:05.829Z,46.33
2019-02-28T21:31:37.503Z,46.33
2019-02-28T21:34:09.240Z,48.60
2019-02-28T21:36:40.977Z,38.43
2019-02-28T21:39:12.675Z,49.63
2019-02-28T21:41:45.898Z,43.90
2019-02-28T21:44:17.681Z,52.10
2019-02-28T21:46:49.360Z,52.40
2019-02-28T21:49:21.045Z,66.83
2019-02-28T21:51:52.762Z,54.23
2019-02-28T21:54:24.458Z,56.17
2019-02-28T21:56:56.152Z,37.03
2019-02-28T21:59:28.107Z,38.00
2019-02-28T22:01:59.797Z,38.90
2019-02-28T22:04:31.671Z,39.50
2019-02-28T22:07:03.367Z,36.57
2019-02-28T22:09:35.943Z,39.43
2019-02-28T22:12:07.640Z,51.53
2019-02-28T22:14:39.270Z,43.40
2019-02-28T22:17:10.975Z,42.20
2019-02-28T22:19:42.583Z,48.60
2019-02-28T22:22:14.219Z,54.67
2019-02-28T22:24:45.834Z,44.60
2019-02-28T22:27:17.530Z,48.03
2019-02-28T22:29:49.141Z,56.37
2019-02-28T22:32:39.661Z,37.27
2019-02-28T22:35:20.122Z,36.10
2019-02-28T22:37:51.807Z,34.00
2019-02-28T22:40:23.478Z,55.60
2019-02-28T22:42:55.108Z,42.57
2019-02-28T22:45:26.715Z,47.87
2019-02-28T22:47:59.371Z,45.77
2019-02-28T22:50:31.259Z,41.47
2019-02-28T22:53:02.871Z,34.27
2019-02-28T22:55:34.485Z,39.50
2019-02-28T22:58:09.377Z,33.00
2019-02-28T23:01:04.053Z,34.57
2019-02-28T23:03:36.032Z,36.80
2019-02-28T23:06:07.901Z,35.53
2019-02-28T23:08:39.506Z,32.00
2019-02-28T23:11:11.119Z,36.80
2019-02-28T23:13:42.796Z,34.07
2019-02-28T23:16:14.404Z,37.50
2019-02-28T23:18:46.001Z,31.60
2019-02-28T23:21:17.613Z,26.63
2019-02-28T23:23:49.209Z,27.50
2019-02-28T23:26:26.838Z,25.80
2019-02-28T23:29:08.808Z,26.03
2019-02-28T23:32:24.025Z,28.83
2019-02-28T23:34:56.648Z,25.03
2019-02-28T23:37:28.383Z,24.73
2019-02-28T23:39:59.988Z,24.73
2019-02-28T23:42:31.589Z,27.33
2019-02-28T23:45:03.256Z,28.10
2019-02-28T23:47:35.927Z,27.97
2019-02-28T23:50:08.409Z,22.43
2019-02-28T23:52:40.038Z,26.73
2019-02-28T23:55:11.674Z,25.77
2019-02-28T23:57:43.277Z,20.37
